Latest Weather Observations for Jimna

IDQ60801

Issued at 7:05 pm EST Saturday 22 November 2014 (issued every 30 minutes, with the page automatically refreshed every 10 minutes)

About weather observations | Map of weather stations | Latest weather observations for QLD | Other Formats
Station Details ID: 040651 Name: JIMNA FORESTRY Lat: -26.66 Lon: 152.46 Height: 523.0 m
Data from the previous 72 hours. | See also: Recent months at Jimna
Date/Time
EST
Temp
°C
App
Temp
°C
Dew
Point
Rel
Hum
%
Delta-T
°C
Wind Press
QNH
hPa
Press
MSL
hPa
Rain
since 9 am
mm
Dir
 
Spd
km/h
Gust
km/h
Spd
kts
Gust
kts
22/07:00pm 26.1 - 20.2 70 3.9 - - - - - - - 0.0
22/06:30pm 26.9 - 20.3 67 4.4 - - - - - - - 0.0
22/06:00pm 27.9 - 19.9 61 5.3 - - - - - - - 0.0
22/05:30pm 29.3 - 18.4 51 7.1 - - - - - - - 0.0
22/05:00pm 30.1 - 17.5 46 8.2 - - - - - - - 0.0
22/04:30pm 30.8 - 17.8 45 8.5 - - - - - - - 0.0
22/04:00pm 31.7 - 16.8 40 9.6 - - - - - - - 0.0
22/03:30pm 32.1 - 17.2 41 9.7 - - - - - - - 0.0
22/03:00pm 32.8 - 17.4 39 10.0 - - - - - - - 0.0
22/02:30pm 32.1 - 17.2 41 9.7 - - - - - - - 0.0
22/02:00pm 33.1 - 18.1 41 9.9 - - - - - - - 0.0
22/01:30pm 32.4 - 17.5 41 9.7 - - - - - - - 0.0
22/01:00pm 31.9 - 17.8 43 9.2 - - - - - - - 0.0
22/12:30pm 31.2 - 17.9 45 8.7 - - - - - - - 0.0
22/12:00pm 31.1 - 17.4 44 8.9 - - - - - - - 0.0
22/11:30am 30.7 - 18.4 47 8.1 - - - - - - - 0.0
22/11:00am 30.0 - 17.5 47 8.1 - - - - - - - 0.0
22/10:30am 29.0 - 17.5 49 7.4 - - - - - - - 0.0
22/10:00am 28.5 - 17.4 51 7.1 - - - - - - - 0.0
22/09:30am 27.8 - 17.3 52 6.7 - - - - - - - 0.0
22/09:00am 26.8 - 17.3 56 6.1 - - - - - - - 0.0
22/08:30am 25.6 - 17.3 60 5.3 - - - - - - - 0.0
22/08:00am 24.8 - 17.8 65 4.5 - - - - - - - 0.0
22/07:30am 23.3 - 18.0 72 3.4 - - - - - - - 0.0
22/07:00am 21.6 - 18.2 81 2.2 - - - - - - - 0.0
22/06:30am 21.1 - 18.3 84 1.8 - - - - - - - 0.0
22/06:00am 20.6 - 18.2 86 1.5 - - - - - - - 0.0
22/05:30am 20.4 - 18.2 87 1.4 - - - - - - - 0.0
22/05:00am 20.1 - 17.9 87 1.4 - - - - - - - 0.0
22/04:30am 20.1 - 18.0 88 1.3 - - - - - - - 0.0
22/04:00am 20.1 - 18.0 88 1.3 - - - - - - - 0.0
22/03:30am 19.9 - 17.9 88 1.3 - - - - - - - 0.0
22/03:00am 19.8 - 17.8 88 1.3 - - - - - - - 0.0
22/02:30am 20.1 - 18.0 88 1.3 - - - - - - - 0.0
22/02:00am 20.2 - 18.0 87 1.4 - - - - - - - 0.0
22/01:30am 20.3 - 18.1 87 1.4 - - - - - - - 0.0
22/01:00am 20.4 - 18.0 86 1.5 - - - - - - - 0.0
22/12:30am 20.6 - 18.0 85 1.6 - - - - - - - 0.0
22/12:00am 20.9 - 17.7 82 2.0 - - - - - - - 0.0
 
Date/Time
EST
Temp
°C
App
Temp
°C
Dew
Point
Rel
Hum
%
Delta-T
°C
Wind Press
QNH
hPa
Press
MSL
hPa
Rain
since 9 am
mm
Dir
 
Spd
km/h
Gust
km/h
Spd
kts
Gust
kts
21/11:30pm 21.4 - 17.6 79 2.4 - - - - - - - 0.0
21/11:00pm 21.8 - 17.4 76 2.8 - - - - - - - 0.0
21/10:30pm 22.1 - 17.5 75 2.9 - - - - - - - 0.0
21/10:00pm 22.6 - 17.7 74 3.1 - - - - - - - 0.0
21/09:30pm 23.0 - 17.9 73 3.2 - - - - - - - 0.0
21/09:00pm 23.5 - 18.2 72 3.4 - - - - - - - 0.0
21/08:30pm 23.8 - 18.2 71 3.6 - - - - - - - 0.0
21/08:00pm 24.4 - 18.6 70 3.8 - - - - - - - 0.0
21/07:30pm 24.9 - 18.8 69 4.0 - - - - - - - 0.0
21/07:00pm 25.5 - 18.7 66 4.4 - - - - - - - 0.0
21/06:30pm 26.4 - 18.8 63 5.0 - - - - - - - 0.0
21/06:00pm 27.7 - 16.3 49 7.2 - - - - - - - 0.0
21/05:30pm 28.3 - 16.6 49 7.4 - - - - - - - 0.0
21/05:00pm 28.8 - 16.7 48 7.7 - - - - - - - 0.0
21/04:30pm 29.9 - 16.0 43 8.8 - - - - - - - 0.0
21/04:00pm 30.4 - 16.0 41 9.1 - - - - - - - 0.0
21/03:30pm 30.6 - 15.8 40 9.4 - - - - - - - 0.0
21/03:00pm 30.7 - 16.3 42 9.2 - - - - - - - 0.0
21/02:30pm 30.2 - 16.2 42 8.9 - - - - - - - 0.0
21/02:00pm 29.5 - 16.3 45 8.4 - - - - - - - 0.0
21/01:30pm 28.6 - 16.8 48 7.5 - - - - - - - 0.0
21/01:00pm 29.1 - 17.0 48 7.8 - - - - - - - 0.0
21/12:30pm 27.7 - 16.6 50 7.0 - - - - - - - 0.0
21/12:00pm 27.6 - 16.6 51 7.0 - - - - - - - 0.0
21/11:30am 26.9 - 17.4 56 6.1 - - - - - - - 0.0
21/11:00am 27.7 - 17.8 54 6.4 - - - - - - - 0.0
21/10:30am 26.0 - 17.9 61 5.2 - - - - - - - 0.0
21/10:00am 25.3 - 17.2 61 5.1 - - - - - - - 0.0
21/09:30am 25.0 - 17.7 64 4.7 - - - - - - - 0.0
21/09:00am 24.8 - 18.7 69 4.0 - - - - - - - 0.0
21/08:30am 23.0 - 18.3 75 3.0 - - - - - - - 0.0
21/08:00am 22.6 - 18.2 76 2.8 - - - - - - - 0.0
21/07:30am 21.7 - 18.1 80 2.3 - - - - - - - 0.0
21/07:00am 21.7 - 18.5 82 2.0 - - - - - - - 0.0
21/06:30am 20.8 - 17.8 83 1.9 - - - - - - - 0.0
21/06:00am 20.2 - 17.8 86 1.5 - - - - - - - 0.0
21/05:30am 19.9 - 17.9 88 1.3 - - - - - - - 0.0
21/05:00am 19.5 - 17.8 90 1.1 - - - - - - - 0.0
21/04:30am 19.8 - 17.6 87 1.4 - - - - - - - 0.0
21/04:00am 19.9 - 17.9 88 1.3 - - - - - - - 0.0
21/03:30am 20.1 - 17.9 87 1.4 - - - - - - - 0.0
21/03:00am 20.5 - 18.3 87 1.4 - - - - - - - 0.0
21/02:30am 20.4 - 18.2 87 1.4 - - - - - - - 0.0
21/02:00am 20.4 - 18.2 87 1.4 - - - - - - - 0.0
21/01:30am 20.6 - 18.2 86 1.5 - - - - - - - 0.0
21/01:00am 20.4 - 18.2 87 1.4 - - - - - - - 0.0
21/12:30am 20.3 - 17.9 86 1.5 - - - - - - - 0.0
21/12:00am 20.4 - 18.0 86 1.5 - - - - - - - 0.0
 
Date/Time
EST
Temp
°C
App
Temp
°C
Dew
Point
Rel
Hum
%
Delta-T
°C
Wind Press
QNH
hPa
Press
MSL
hPa
Rain
since 9 am
mm
Dir
 
Spd
km/h
Gust
km/h
Spd
kts
Gust
kts
20/11:30pm 20.4 - 18.0 86 1.5 - - - - - - - 0.0
20/11:00pm 20.6 - 18.2 86 1.5 - - - - - - - 0.0
20/10:30pm 20.6 - 18.2 86 1.5 - - - - - - - 0.0
20/10:00pm 20.7 - 18.3 86 1.5 - - - - - - - 0.0
20/09:30pm 20.7 - 18.1 85 1.6 - - - - - - - 0.0
20/09:00pm 20.8 - 18.2 85 1.7 - - - - - - - 0.0
20/08:30pm 20.8 - 18.2 85 1.7 - - - - - - - 0.0
20/08:00pm 21.0 - 18.2 84 1.8 - - - - - - - 0.0
20/07:30pm 21.2 - 18.4 84 1.8 - - - - - - - 0.0
20/07:00pm 21.4 - 18.4 83 1.9 - - - - - - - 0.0
20/06:30pm 21.6 - 18.8 84 1.8 - - - - - - - 0.0
20/06:00pm 21.8 - 18.6 82 2.1 - - - - - - - 0.0
20/05:30pm 22.3 - 18.1 77 2.7 - - - - - - - 0.0
20/05:00pm 23.6 - 18.0 71 3.6 - - - - - - - 0.0
20/04:30pm 24.8 - 17.8 65 4.5 - - - - - - - 0.0
20/04:00pm 26.0 - 17.6 60 5.4 - - - - - - - 0.0
20/03:30pm 25.2 - 17.7 63 4.8 - - - - - - - 0.0
20/03:00pm 26.4 - 18.0 60 5.4 - - - - - - - 0.0
20/02:30pm 25.9 - 17.3 59 5.5 - - - - - - - 0.0
20/02:00pm 27.9 - 15.9 48 7.5 - - - - - - - 0.0
20/01:30pm 27.0 - 16.0 51 6.9 - - - - - - - 0.0
20/01:00pm 26.6 - 15.3 50 7.0 - - - - - - - 0.0
20/12:30pm 26.8 - 16.1 52 6.7 - - - - - - - 0.0
20/12:00pm 26.2 - 16.2 54 6.3 - - - - - - - 0.0
20/11:30am 24.7 - 15.9 58 5.5 - - - - - - - 0.0
20/11:00am 24.9 - 15.8 57 5.6 - - - - - - - 0.0
20/10:30am 24.3 - 16.0 60 5.2 - - - - - - - 0.0
20/10:00am 23.8 - 15.8 61 4.9 - - - - - - - 0.0
20/09:30am 25.0 - 15.3 55 6.0 - - - - - - - 0.0
20/09:00am 24.5 - 15.1 55 5.8 - - - - - - - 44.6
20/08:30am 23.5 - 15.5 60 4.9 - - - - - - - 44.6
20/08:00am 22.9 - 16.4 67 4.0 - - - - - - - 44.6
20/07:30am 20.8 - 16.8 78 2.5 - - - - - - - 44.6
20/07:00am 19.5 - 16.7 84 1.7 - - - - - - - 44.6
20/06:30am 18.0 - 16.5 91 0.9 - - - - - - - 44.6
20/06:00am 16.9 - 16.7 99 0.1 - - - - - - - 44.6
20/05:30am 16.4 - 16.2 99 0.1 - - - - - - - 44.6
20/05:00am 16.1 - 15.9 99 0.1 - - - - - - - 44.6
20/04:30am 15.6 - 15.3 98 0.2 - - - - - - - 44.6
20/04:00am 15.5 - 15.0 97 0.3 - - - - - - - 44.6
20/03:30am 15.3 - 14.8 97 0.3 - - - - - - - 44.6
20/03:00am 15.1 - 13.8 92 0.7 - - - - - - - 44.6
20/02:30am 15.2 - 13.9 92 0.8 - - - - - - - 44.6
20/02:00am 15.6 - 14.0 90 0.9 - - - - - - - 44.6
20/01:30am 16.1 - 14.3 89 1.1 - - - - - - - 44.6
20/01:00am 16.5 - 14.7 89 1.1 - - - - - - - 44.6
20/12:30am 16.9 - 15.2 90 1.0 - - - - - - - 44.6
20/12:00am 17.4 - 15.7 90 1.0 - - - - - - - 44.6
 
Date/Time
EST
Temp
°C
App
Temp
°C
Dew
Point
Rel
Hum
%
Delta-T
°C
Wind Press
QNH
hPa
Press
MSL
hPa
Rain
since 9 am
mm
Dir
 
Spd
km/h
Gust
km/h
Spd
kts
Gust
kts
19/11:30pm 17.5 - 15.8 90 1.0 - - - - - - - 44.6
19/11:00pm 17.9 - 16.2 90 1.0 - - - - - - - 44.6
19/10:30pm 18.3 - 16.6 90 1.0 - - - - - - - 44.6
19/10:00pm 18.5 - 17.2 92 0.8 - - - - - - - 44.6
19/09:30pm 18.3 - 18.3 100 0.0 - - - - - - - 44.6
19/09:00pm 18.2 - 17.7 97 0.3 - - - - - - - 44.6
19/08:30pm 18.3 - 17.0 92 0.8 - - - - - - - 44.6
19/08:00pm 18.5 - 18.3 99 0.1 - - - - - - - 44.6
19/07:30pm 18.3 - 18.3 100 0.0 - - - - - - - 44.6

Other Formats:

Comma delimited format used in spreadsheet applications
http://www.bom.gov.au/fwo/IDQ60801/IDQ60801.94557.axf

JavaScript Object Notation format (JSON) in row-major order
http://www.bom.gov.au/fwo/IDQ60801/IDQ60801.94557.json